Time;durP1;ratioP1;P1;durP2;ratioP2;P2;SDS_P1;SDS_P2;PMS_P1;PMS_P2;Temp;Humidity;BMP_temperature;BMP_pressure;BME280_temperature;BME280_humidity;BME280_pressure;Samples;Min_cycle;Max_cycle;Signal;HPM_P1;HPM_P2
2022/10/14 00:00:39;;;;;;;51.78;34.42;;;;;;;24.90;74.01;98710.06;4818468;29;20515;-69
2022/10/14 00:03:28;;;;;;;55.33;35.13;;;;;;;24.88;73.70;98715.06;4818333;29;20066;-70
2022/10/14 00:06:16;;;;;;;52.05;34.38;;;;;;;24.89;73.44;98718.63;4818205;29;20069;-70
2022/10/14 00:09:08;;;;;;;50.88;33.78;;;;;;;24.77;74.04;98719.97;4818303;29;20126;-69
2022/10/14 00:11:50;;;;;;;54.75;36.45;;;;;;;24.81;74.06;98720.97;4818529;29;20043;-70
2022/10/14 00:14:39;;;;;;;61.45;36.83;;;;;;;24.85;73.56;98726.66;4818046;29;20436;-70
2022/10/14 00:17:21;;;;;;;51.75;34.80;;;;;;;24.92;73.42;98729.00;4816915;29;20054;-70
2022/10/14 00:20:11;;;;;;;59.88;35.47;;;;;;;24.87;73.60;98729.91;4817691;29;20058;-70
2022/10/14 00:22:54;;;;;;;61.53;36.92;;;;;;;24.87;72.96;98729.91;4818403;29;20673;-71
2022/10/14 00:25:49;;;;;;;53.58;35.58;;;;;;;24.86;73.55;98736.53;4830104;29;20037;-70
2022/10/14 00:28:41;;;;;;;60.28;37.58;;;;;;;24.82;72.86;98735.50;4833822;29;20582;-70
2022/10/14 00:31:33;;;;;;;60.05;37.53;;;;;;;24.78;72.88;98740.81;4833508;29;20053;-70
2022/10/14 00:34:15;;;;;;;60.67;37.55;;;;;;;24.78;72.37;98731.75;4834802;29;20062;-70
2022/10/14 00:37:06;;;;;;;54.88;38.25;;;;;;;24.76;72.62;98737.56;4836435;29;20462;-70
2022/10/14 00:39:48;;;;;;;68.70;38.55;;;;;;;24.77;72.36;98749.34;4835820;29;20054;-70
2022/10/14 00:42:40;;;;;;;64.15;38.58;;;;;;;24.79;71.93;98741.63;4836197;29;20049;-71
2022/10/14 00:45:35;;;;;;;57.33;40.40;;;;;;;24.89;71.46;98746.06;4835956;29;20057;-70
2022/10/14 00:48:11;;;;;;;62.95;40.30;;;;;;;24.91;71.38;98749.31;4835851;29;20124;-70
2022/10/14 00:51:08;;;;;;;67.88;43.10;;;;;;;24.86;71.15;98747.50;4819947;29;20053;-71
2022/10/14 00:53:49;;;;;;;63.35;41.17;;;;;;;24.89;71.14;98751.56;4834586;29;20065;-70
2022/10/14 00:56:45;;;;;;;66.63;41.90;;;;;;;24.88;71.40;98752.66;4835397;29;20056;-70
2022/10/14 00:59:22;;;;;;;63.72;43.05;;;;;;;24.86;71.29;98754.91;4828978;29;20067;-71
2022/10/14 01:02:18;;;;;;;62.67;41.37;;;;;;;24.86;71.59;98758.47;4833681;29;20065;-71
2022/10/14 01:04:57;;;;;;;64.82;41.90;;;;;;;24.87;71.84;98764.78;4834847;29;20296;-70
2022/10/14 01:07:52;;;;;;;;;;;;;;;24.97;71.42;98761.81;4835744;29;20662;-67
2022/10/14 01:10:58;;;;;;;68.40;42.40;;;;;;;24.86;71.17;98774.13;4834596;29;20016;-67
2022/10/14 01:14:03;;;;;;;64.07;43.13;;;;;;;24.75;71.84;98770.78;4835298;29;20140;-67
2022/10/14 01:17:08;;;;;;;73.45;47.13;;;;;;;24.78;71.08;98773.75;4802647;29;20079;-68
2022/10/14 01:20:41;;;;;;;79.28;50.65;;;;;;;24.72;71.29;98772.19;4804218;29;20155;-68
2022/10/14 01:23:19;;;;;;;93.53;53.13;;;;;;;24.77;71.66;98777.59;4833385;29;20069;-67
2022/10/14 01:26:38;;;;;;;87.00;56.13;;;;;;;24.79;71.32;98780.84;4819521;29;20077;-68
2022/10/14 01:29:16;;;;;;;89.65;57.85;;;;;;;24.85;71.03;98788.97;4816395;29;20058;-67
2022/10/14 01:32:29;;;;;;;99.32;60.78;;;;;;;24.80;71.13;98787.97;4816121;29;20065;-68
2022/10/14 01:35:25;;;;;;;102.72;62.65;;;;;;;24.74;71.39;98791.91;4812704;29;20138;-68
2022/10/14 01:38:29;;;;;;;116.18;65.07;;;;;;;24.85;71.28;98797.22;4822190;29;20054;-68
2022/10/14 01:41:31;;;;;;;116.03;65.20;;;;;;;24.93;71.19;98801.97;4817828;29;20509;-68
2022/10/14 01:44:23;;;;;;;113.57;66.38;;;;;;;24.94;70.62;98795.38;4832075;29;20054;-68
2022/10/14 01:47:16;;;;;;;115.13;69.38;;;;;;;24.92;71.25;98800.38;4817351;29;20457;-68
2022/10/14 01:50:14;;;;;;;120.00;68.38;;;;;;;24.89;71.40;98800.97;4817552;29;20546;-68
2022/10/14 01:53:15;;;;;;;108.95;67.43;;;;;;;24.96;71.04;98801.38;4834221;29;20053;-68
2022/10/14 01:56:01;;;;;;;107.07;65.57;;;;;;;25.06;71.09;98805.84;4833665;29;20049;-68
2022/10/14 01:58:52;;;;;;;111.95;65.88;;;;;;;25.12;71.35;98799.09;4834370;29;20046;-69
2022/10/14 02:01:35;;;;;;;111.03;66.63;;;;;;;25.20;71.43;98807.44;4830216;29;20064;-69
2022/10/14 02:04:26;;;;;;;105.75;66.00;;;;;;;25.20;70.98;98809.34;4838345;29;20076;-68
2022/10/14 02:07:33;;;;;;;109.63;64.75;;;;;;;25.34;70.46;98812.13;4852375;29;20069;-68
2022/10/14 02:10:44;;;;;;;108.47;65.22;;;;;;;25.37;70.72;98816.97;4852131;29;20524;-69
2022/10/14 02:14:18;;;;;;;113.68;63.85;;;;;;;25.52;70.78;98824.88;4852417;29;20058;-69
2022/10/14 02:17:25;;;;;;;97.57;59.70;;;;;;;25.65;70.53;98823.22;4799144;29;20123;-68
2022/10/14 02:20:39;;;;;;;107.47;62.88;;;;;;;26.03;69.68;98819.31;4815335;29;20088;-68
2022/10/14 02:23:36;;;;;;;107.05;62.17;;;;;;;26.15;68.65;98831.34;4823475;29;20045;-68
2022/10/14 02:26:19;;;;;;;111.00;62.67;;;;;;;26.28;69.10;98831.59;4869342;29;20073;-68
2022/10/14 02:29:10;;;;;;;110.47;62.42;;;;;;;26.47;68.86;98834.94;4819709;29;20054;-68
2022/10/14 02:31:53;;;;;;;109.05;62.88;;;;;;;26.64;67.82;98836.19;4819992;29;20054;-67
2022/10/14 02:34:44;;;;;;;113.47;64.20;;;;;;;26.65;67.18;98835.84;4821917;29;20121;-68
2022/10/14 02:37:28;;;;;;;99.27;62.33;;;;;;;26.71;68.03;98837.34;4846493;29;20062;-67
2022/10/14 02:40:23;;;;;;;106.55;61.20;;;;;;;26.89;66.48;98837.41;4819272;29;20530;-68
2022/10/14 02:43:08;;;;;;;100.20;61.08;;;;;;;26.91;65.21;98843.41;4819465;29;20425;-67
2022/10/14 02:46:04;;;;;;;98.40;59.65;;;;;;;27.11;63.99;98839.22;4819444;29;20055;-67
2022/10/14 02:48:46;;;;;;;104.28;58.17;;;;;;;27.25;64.01;98844.66;4833715;29;20109;-68
2022/10/14 02:51:35;;;;;;;108.47;59.80;;;;;;;27.31;64.16;98848.88;4854913;29;20085;-68
2022/10/14 02:54:18;;;;;;;98.72;56.30;;;;;;;27.48;64.96;98857.16;4803075;29;20069;-67
2022/10/14 02:57:08;;;;;;;95.32;57.17;;;;;;;27.56;63.65;98855.53;4802817;29;20135;-68
2022/10/14 02:59:51;;;;;;;98.63;56.53;;;;;;;27.66;63.88;98857.16;4819598;29;20050;-68
2022/10/14 03:02:41;;;;;;;87.05;51.97;;;;;;;27.69;61.55;98859.28;4850616;29;20062;-67
2022/10/14 03:05:32;;;;;;;90.70;52.30;;;;;;;27.75;61.99;98851.66;4841789;29;20061;-68
2022/10/14 03:08:19;;;;;;;77.07;47.97;;;;;;;27.88;61.37;98868.06;4854457;29;20412;-67
2022/10/14 03:11:16;;;;;;;81.45;49.28;;;;;;;27.94;59.69;98870.69;4854265;29;20049;-69
2022/10/14 03:13:55;;;;;;;102.75;48.85;;;;;;;27.96;60.79;98873.91;4839594;29;20225;-69
2022/10/14 03:16:44;;;;;;;91.13;44.33;;;;;;;28.23;59.24;98873.53;4853923;29;20056;-69
2022/10/14 03:19:37;;;;;;;69.47;42.17;;;;;;;28.18;58.95;98881.97;4836279;29;20042;-68
2022/10/14 03:22:21;;;;;;;72.65;42.55;;;;;;;28.36;58.84;98890.25;4837300;29;20071;-68
2022/10/14 03:25:18;;;;;;;69.50;40.80;;;;;;;28.54;57.05;98886.31;4819101;29;20062;-68
2022/10/14 03:28:30;;;;;;;63.20;39.70;;;;;;;28.53;58.28;98887.47;4820376;29;20127;-69
2022/10/14 03:31:27;;;;;;;79.85;42.17;;;;;;;28.65;57.57;98890.34;4818036;29;20054;-68
2022/10/14 03:34:29;;;;;;;72.28;40.30;;;;;;;28.60;55.68;98887.75;4812849;29;20141;-68
2022/10/14 03:37:22;;;;;;;71.30;39.25;;;;;;;28.70;58.12;98890.19;4799777;29;20435;-69
2022/10/14 03:40:05;;;;;;;65.18;37.40;;;;;;;28.67;57.25;98890.84;4840292;29;20043;-67
2022/10/14 03:42:54;;;;;;;63.63;36.47;;;;;;;28.83;58.07;98895.81;4807654;29;20047;-70
2022/10/14 03:45:46;;;;;;;65.18;35.92;;;;;;;28.89;57.34;98898.06;4812661;29;20428;-68
2022/10/14 03:48:35;;;;;;;60.60;36.70;;;;;;;29.12;54.17;98896.97;4830784;29;20086;-68
2022/10/14 03:51:18;;;;;;;61.90;37.88;;;;;;;29.34;55.22;98899.50;4832817;29;20089;-68
2022/10/14 03:54:27;;;;;;;59.20;33.15;;;;;;;29.27;53.54;98900.03;4817980;29;20542;-68
2022/10/14 03:57:19;;;;;;;64.38;33.03;;;;;;;29.50;52.20;98898.91;4817310;29;20058;-68
2022/10/14 04:00:11;;;;;;;71.35;35.92;;;;;;;29.90;53.64;98898.47;4832581;29;20058;-69
2022/10/14 04:03:04;;;;;;;60.03;31.73;;;;;;;30.54;51.98;98903.59;4832330;29;20055;-66
2022/10/14 04:05:53;;;;;;;46.35;29.10;;;;;;;30.59;50.47;98908.09;4816851;29;20118;-66
2022/10/14 04:08:36;;;;;;;57.85;31.30;;;;;;;30.71;50.95;98907.34;4827756;29;20046;-66
2022/10/14 04:11:34;;;;;;;71.63;35.40;;;;;;;30.82;50.04;98906.53;4814884;29;20115;-66
2022/10/14 04:14:26;;;;;;;56.00;31.63;;;;;;;30.90;49.28;98904.84;4800827;29;20179;-65
2022/10/14 04:17:16;;;;;;;61.10;33.42;;;;;;;31.21;50.28;98906.25;4798770;29;20069;-66
2022/10/14 04:19:59;;;;;;;53.92;27.95;;;;;;;31.25;50.05;98901.63;4814128;29;20058;-65
2022/10/14 04:22:48;;;;;;;56.08;29.35;;;;;;;31.30;50.61;98908.88;4798139;29;20059;-66
2022/10/14 04:25:46;;;;;;;49.88;26.73;;;;;;;31.40;48.88;98909.22;4830686;29;20145;-66
2022/10/14 04:28:36;;;;;;;43.25;25.20;;;;;;;31.94;48.69;98904.53;4865917;29;20082;-66
2022/10/14 04:31:38;;;;;;;40.08;25.73;;;;;;;32.04;46.34;98904.03;4853231;29;20140;-67
2022/10/14 04:34:24;;;;;;;43.47;24.73;;;;;;;32.07;46.26;98911.69;4853400;29;20065;-65
2022/10/14 04:37:14;;;;;;;47.47;25.60;;;;;;;31.90;45.65;98904.41;4853134;29;20058;-65
2022/10/14 04:40:10;;;;;;;44.00;24.17;;;;;;;32.28;46.20;98913.44;4852883;29;20049;-66
2022/10/14 04:43:02;;;;;;;39.45;24.30;;;;;;;32.44;46.32;98911.50;4853762;29;20124;-66
2022/10/14 04:45:58;;;;;;;48.67;24.70;;;;;;;32.53;45.21;98905.78;4851776;29;20144;-65
2022/10/14 04:48:34;;;;;;;34.70;20.92;;;;;;;33.22;44.23;98905.59;4817983;29;20074;-66
2022/10/14 04:51:25;;;;;;;36.78;19.80;;;;;;;32.05;43.43;98908.44;4836987;29;20141;-65
2022/10/14 04:54:36;;;;;;;35.13;20.58;;;;;;;32.77;44.62;98904.84;4850170;29;20499;-66
2022/10/14 04:57:18;;;;;;;35.72;21.48;;;;;;;32.60;45.49;98897.69;4831545;29;20448;-66
2022/10/14 05:00:10;;;;;;;44.05;21.02;;;;;;;32.51;45.60;98897.00;4836993;29;20065;-67
2022/10/14 05:03:04;;;;;;;34.25;22.05;;;;;;;32.67;43.98;98895.06;4834862;29;20057;-66
2022/10/14 05:05:53;;;;;;;34.00;21.75;;;;;;;32.25;44.63;98903.03;4843957;29;20125;-66
2022/10/14 05:08:36;;;;;;;48.53;25.90;;;;;;;32.74;45.55;98897.22;4852796;29;20064;-65
2022/10/14 05:11:26;;;;;;;69.72;40.00;;;;;;;32.79;45.57;98888.63;4843541;29;20081;-65
2022/10/14 05:14:25;;;;;;;84.10;39.95;;;;;;;32.85;45.05;98898.31;4833258;29;20058;-64
2022/10/14 05:17:11;;;;;;;69.82;38.40;;;;;;;33.11;46.63;98899.75;4834635;29;20080;-67
2022/10/14 05:20:06;;;;;;;71.57;39.00;;;;;;;33.37;45.12;98898.41;4848844;29;20144;-67
2022/10/14 05:22:44;;;;;;;60.50;33.28;;;;;;;33.57;44.06;98904.78;4835921;29;20489;-66
2022/10/14 05:25:40;;;;;;;54.47;30.33;;;;;;;33.46;43.78;98898.97;4815028;29;20058;-67
2022/10/14 05:28:30;;;;;;;44.70;26.23;;;;;;;33.77;44.27;98905.66;4832753;29;20058;-68
2022/10/14 05:31:20;;;;;;;49.03;22.90;;;;;;;33.94;42.37;98891.31;4819294;29;20064;-67
2022/10/14 05:34:23;;;;;;;46.95;24.48;;;;;;;33.87;41.98;98891.16;4836400;29;20415;-67
2022/10/14 05:37:16;;;;;;;40.22;25.65;;;;;;;33.13;43.33;98887.13;4834518;29;20084;-67
2022/10/14 05:40:00;;;;;;;52.95;29.05;;;;;;;33.24;44.33;98887.38;4837155;29;20591;-66
2022/10/14 05:42:50;;;;;;;67.03;34.65;;;;;;;33.60;45.06;98885.41;4849315;29;20069;-65
2022/10/14 05:45:33;;;;;;;68.97;37.40;;;;;;;33.06;44.08;98886.13;4846865;29;20050;-66
2022/10/14 05:48:23;;;;;;;64.43;33.65;;;;;;;33.13;44.99;98886.28;4818958;29;20054;-65
2022/10/14 05:51:06;;;;;;;65.13;33.22;;;;;;;33.33;45.43;98882.41;4820309;29;20056;-65
2022/10/14 05:54:00;;;;;;;69.03;34.53;;;;;;;33.33;43.72;98890.75;4855474;29;20147;-65
2022/10/14 05:56:42;;;;;;;62.97;33.20;;;;;;;33.21;44.73;98892.84;4840277;29;20054;-66
2022/10/14 05:59:33;;;;;;;60.47;33.25;;;;;;;32.92;45.05;98887.38;4839342;29;20141;-65
2022/10/14 06:02:15;;;;;;;54.45;31.95;;;;;;;32.92;44.93;98881.81;4852465;29;20054;-65
2022/10/14 06:05:04;;;;;;;57.20;31.05;;;;;;;33.13;45.87;98877.97;4837686;29;20141;-64
2022/10/14 06:07:48;;;;;;;60.75;31.63;;;;;;;33.23;44.15;98879.38;4501010;29;10001168;-64
2022/10/14 06:10:41;;;;;;;58.92;32.13;;;;;;;33.25;43.47;98877.88;4834847;29;20451;-66
2022/10/14 06:13:39;;;;;;;56.55;31.17;;;;;;;33.21;44.75;98873.38;4834264;29;20634;-67
2022/10/14 06:16:14;;;;;;;64.47;31.83;;;;;;;33.41;47.23;98869.47;4835531;29;20062;-65
2022/10/14 06:19:11;;;;;;;55.63;32.17;;;;;;;33.05;44.95;98865.81;4849477;29;20056;-66
2022/10/14 06:21:47;;;;;;;54.15;32.42;;;;;;;33.26;45.15;98865.56;4835281;29;20054;-66
2022/10/14 06:24:42;;;;;;;56.10;32.28;;;;;;;33.36;45.51;98864.19;4836925;29;20137;-68
2022/10/14 06:27:24;;;;;;;58.30;34.83;;;;;;;33.17;47.72;98851.03;4827163;29;20061;-65
2022/10/14 06:30:14;;;;;;;61.70;33.13;;;;;;;33.18;45.43;98855.44;4831974;29;20050;-64
2022/10/14 06:32:57;;;;;;;60.85;31.20;;;;;;;33.26;45.22;98857.22;4835804;29;20060;-65
2022/10/14 06:35:46;;;;;;;54.30;31.30;;;;;;;32.88;44.99;98847.53;4834680;29;20080;-64
2022/10/14 06:38:28;;;;;;;57.58;31.98;;;;;;;33.24;45.61;98853.97;4835347;29;20058;-65
2022/10/14 06:41:17;;;;;;;49.25;31.80;;;;;;;33.62;47.00;98852.44;4834045;29;20876;-65
2022/10/14 06:43:59;;;;;;;56.70;32.95;;;;;;;33.40;45.69;98842.00;4834270;29;20054;-65
2022/10/14 06:46:49;;;;;;;56.58;30.70;;;;;;;33.21;45.95;98843.59;4835358;29;20121;-66
2022/10/14 06:49:44;;;;;;;67.82;30.85;;;;;;;33.41;46.23;98843.63;4834758;29;20347;-65
2022/10/14 06:52:20;;;;;;;51.20;30.95;;;;;;;33.50;45.06;98844.25;4834796;29;20073;-66
2022/10/14 06:55:15;;;;;;;60.85;32.55;;;;;;;33.20;44.81;98835.63;4845078;29;20144;-65
2022/10/14 06:57:50;;;;;;;51.03;30.05;;;;;;;33.14;46.22;98835.88;4833081;29;20057;-65
2022/10/14 07:00:45;;;;;;;61.42;32.05;;;;;;;33.21;44.89;98831.66;4822487;29;20057;-65
2022/10/14 07:03:22;;;;;;;50.45;29.75;;;;;;;33.11;44.47;98833.03;4849610;29;20058;-66
2022/10/14 07:06:11;;;;;;;49.10;30.27;;;;;;;32.90;45.21;98824.94;4836712;29;20120;-66
2022/10/14 07:09:00;;;;;;;48.95;27.92;;;;;;;33.08;45.35;98822.59;4837329;29;20053;-66
2022/10/14 07:11:49;;;;;;;50.35;26.45;;;;;;;33.42;44.42;98817.41;4837328;29;20102;-65
2022/10/14 07:14:38;;;;;;;54.70;25.45;;;;;;;33.35;46.92;98816.09;4837399;29;20053;-66
2022/10/14 07:17:20;;;;;;;44.70;23.80;;;;;;;32.88;43.78;98814.19;4834293;29;20081;-66
2022/10/14 07:20:11;;;;;;;49.05;24.40;;;;;;;32.86;44.75;98802.63;4837889;29;20126;-67
2022/10/14 07:23:00;;;;;;;43.38;23.10;;;;;;;32.96;44.52;98798.47;4834303;29;20060;-65
2022/10/14 07:25:42;;;;;;;43.67;24.77;;;;;;;33.29;44.32;98795.31;4850304;29;20058;-66
2022/10/14 07:28:38;;;;;;;47.22;23.17;;;;;;;33.20;44.22;98791.91;4831890;29;20840;-66
2022/10/14 07:31:13;;;;;;;43.33;22.23;;;;;;;33.26;44.24;98793.25;4829314;29;20089;-67
2022/10/14 07:34:09;;;;;;;41.58;22.75;;;;;;;33.13;44.84;98786.19;4832036;29;20153;-66
2022/10/14 07:36:45;;;;;;;35.60;22.35;;;;;;;33.12;43.98;98779.03;4826869;29;20065;-67
2022/10/14 07:39:40;;;;;;;;;;;;;;;33.47;43.93;98764.28;4829166;29;20064;-66
2022/10/14 07:42:15;;;;;;;38.28;21.88;;;;;;;33.35;44.05;98766.03;4825191;29;19981;-66
2022/10/14 07:45:06;;;;;;;31.25;20.70;;;;;;;33.28;45.40;98765.88;4825860;29;20050;-64
2022/10/14 07:47:54;;;;;;;40.53;15.30;;;;;;;33.21;40.32;98757.38;4826832;29;20147;-66
2022/10/14 07:50:48;;;;;;;27.40;16.20;;;;;;;33.22;42.72;98761.75;4825056;29;20058;-66
2022/10/14 07:53:37;;;;;;;34.15;17.60;;;;;;;32.97;41.92;98759.22;4843195;29;20072;-66
2022/10/14 07:56:27;;;;;;;41.47;19.30;;;;;;;33.12;40.15;98754.81;4824968;29;20444;-66
2022/10/14 07:59:17;;;;;;;35.80;17.15;;;;;;;33.08;43.07;98745.56;4817403;29;20053;-66
2022/10/14 08:02:00;;;;;;;31.95;15.57;;;;;;;32.52;41.19;98745.81;4830596;29;20054;-65
2022/10/14 08:04:49;;;;;;;27.65;15.20;;;;;;;32.75;40.66;98734.88;4834398;29;20614;-66
2022/10/14 08:07:32;;;;;;;39.40;17.63;;;;;;;32.83;42.11;98739.44;4833090;29;20058;-65
2022/10/14 08:10:22;;;;;;;27.27;15.88;;;;;;;32.43;42.26;98737.69;4834387;29;20053;-66
2022/10/14 08:13:11;;;;;;;29.50;16.48;;;;;;;32.63;41.41;98737.78;4834101;29;20054;-66
2022/10/14 08:16:00;;;;;;;29.00;16.23;;;;;;;32.73;41.51;98728.88;4834489;29;20050;-66
2022/10/14 08:24:01;;;;;;;27.20;14.90;;;;;;;32.73;41.62;98717.75;4871878;29;20041;-66
2022/10/14 08:26:56;;;;;;;27.83;15.35;;;;;;;32.53;41.63;98726.00;4868163;29;20426;-66
2022/10/14 08:29:45;;;;;;;26.45;14.95;;;;;;;32.50;40.98;98709.25;4885460;29;20595;-66
2022/10/14 08:32:27;;;;;;;29.98;16.15;;;;;;;32.80;41.26;98715.13;4892998;29;20041;-65
2022/10/14 08:35:16;;;;;;;33.38;14.27;;;;;;;32.59;40.56;98709.91;4872622;29;20121;-65
2022/10/14 08:38:00;;;;;;;25.23;14.18;;;;;;;32.63;40.06;98708.00;4854803;29;20057;-65
2022/10/14 08:41:22;;;;;;;26.55;13.90;;;;;;;32.63;40.15;98704.44;4871172;29;20144;-65
2022/10/14 08:44:21;;;;;;;31.98;14.55;;;;;;;32.46;41.63;98695.28;4892411;29;20059;-65
2022/10/14 08:47:16;;;;;;;27.50;14.23;;;;;;;32.53;40.22;98692.66;4878250;29;20065;-65
2022/10/14 08:50:18;;;;;;;25.88;14.50;;;;;;;32.45;40.61;98690.09;4865569;29;20053;-65
2022/10/14 08:53:13;;;;;;;33.10;13.73;;;;;;;32.68;39.90;98688.28;4865297;29;20054;-65
2022/10/14 08:55:59;;;;;;;40.53;15.10;;;;;;;32.52;40.96;98682.75;4869222;29;20063;-65
2022/10/14 08:59:01;;;;;;;35.55;14.30;;;;;;;32.73;40.31;98679.66;4860955;29;20048;-65
2022/10/14 09:02:24;;;;;;;29.17;15.30;;;;;;;32.82;40.77;98670.31;4890161;29;20484;-65
2022/10/14 09:05:23;;;;;;;40.78;15.55;;;;;;;32.62;40.82;98666.69;4879572;29;20116;-66
2022/10/14 09:08:26;;;;;;;25.80;14.05;;;;;;;33.10;41.04;98670.13;4870620;29;20068;-67
2022/10/14 09:11:05;;;;;;;26.60;14.50;;;;;;;32.66;39.92;98662.84;4872388;29;20045;-65
2022/10/14 09:14:06;;;;;;;29.88;14.30;;;;;;;32.78;40.17;98667.44;4872931;29;20044;-65
2022/10/14 09:16:44;;;;;;;29.75;13.80;;;;;;;32.92;40.42;98662.22;4881297;29;20052;-67
2022/10/14 09:19:49;;;;;;;32.40;15.63;;;;;;;32.89;40.14;98662.94;4870617;29;20059;-64
2022/10/14 09:22:26;;;;;;;32.92;14.75;;;;;;;32.61;40.52;98653.97;4868013;29;20048;-66
2022/10/14 09:25:23;;;;;;;35.35;15.77;;;;;;;32.56;40.15;98650.31;4872451;29;20083;-67
2022/10/14 09:27:59;;;;;;;26.83;14.65;;;;;;;32.69;39.33;98642.63;4864511;29;20061;-67
2022/10/14 09:30:54;;;;;;;;;;;;;;;33.09;39.60;98651.81;4872529;29;20418;-67
2022/10/14 09:33:30;;;;;;;25.65;12.98;;;;;;;32.78;39.99;98642.44;4872075;29;20260;-67
2022/10/14 09:36:28;;;;;;;28.33;12.90;;;;;;;32.43;39.41;98645.19;4872440;29;20509;-65
2022/10/14 09:39:04;;;;;;;31.33;13.30;;;;;;;32.62;39.85;98641.66;4872072;29;20057;-66
2022/10/14 09:42:01;;;;;;;28.10;12.35;;;;;;;32.23;38.12;98633.22;4872351;29;20104;-66
2022/10/14 09:44:37;;;;;;;26.67;13.23;;;;;;;32.34;39.37;98635.09;4857864;29;20133;-67
2022/10/14 09:47:20;;;;;;;24.30;13.10;;;;;;;32.45;39.50;98629.78;4871707;29;20057;-66
2022/10/14 09:50:17;;;;;;;24.17;13.05;;;;;;;32.61;39.92;98631.75;4871713;29;20072;-67
2022/10/14 09:53:10;;;;;;;33.45;13.68;;;;;;;32.51;41.04;98621.97;4871788;29;20060;-67
2022/10/14 09:56:07;;;;;;;36.67;15.18;;;;;;;32.34;39.98;98623.19;4866486;29;20053;-67
2022/10/14 09:59:01;;;;;;;28.23;12.98;;;;;;;32.29;39.66;98620.66;4853515;29;20073;-66
2022/10/14 10:01:56;;;;;;;32.58;13.05;;;;;;;32.39;40.48;98622.91;4842394;29;20049;-67
2022/10/14 10:04:49;;;;;;;24.15;13.05;;;;;;;32.46;39.82;98625.03;4864597;29;20497;-66
2022/10/14 10:07:33;;;;;;;25.67;12.48;;;;;;;32.44;39.60;98614.28;4850995;29;20064;-67
2022/10/14 10:10:30;;;;;;;24.00;12.52;;;;;;;32.31;39.15;98618.34;4867608;29;20076;-67
2022/10/14 10:13:47;;;;;;;20.85;11.98;;;;;;;32.14;37.29;98619.53;4855791;29;20065;-66
2022/10/14 10:16:37;;;;;;;19.92;11.13;;;;;;;32.32;37.38;98608.84;4859266;29;20136;-67
2022/10/14 10:19:25;;;;;;;24.30;12.13;;;;;;;31.99;38.57;98607.28;4874564;29;20064;-67
2022/10/14 10:22:37;;;;;;;29.33;13.75;;;;;;;32.33;38.72;98605.72;4874626;29;20073;-67
2022/10/14 10:25:25;;;;;;;23.35;12.75;;;;;;;32.17;39.66;98618.81;4874589;29;20061;-67
2022/10/14 10:28:23;;;;;;;28.10;14.00;;;;;;;32.41;40.66;98614.19;4872808;29;20151;-66
2022/10/14 10:31:11;;;;;;;21.48;13.00;;;;;;;32.05;40.05;98610.59;4875187;29;20057;-67
2022/10/14 10:34:12;;;;;;;28.70;14.50;;;;;;;32.02;40.14;98612.13;4874786;29;20053;-67
2022/10/14 10:37:08;;;;;;;31.65;12.90;;;;;;;32.11;40.80;98609.97;4874770;29;20064;-66
2022/10/14 10:40:07;;;;;;;30.88;14.23;;;;;;;32.16;41.11;98612.47;4877319;29;20045;-67
2022/10/14 10:43:24;;;;;;;35.22;15.20;;;;;;;32.46;41.79;98614.72;4875248;29;20063;-66
2022/10/14 10:46:14;;;;;;;29.92;15.23;;;;;;;32.35;41.05;98608.09;4874854;29;20057;-69
2022/10/14 10:49:30;;;;;;;27.92;13.98;;;;;;;32.26;41.17;98610.31;4185746;29;10000672;-68
2022/10/14 10:52:44;;;;;;;24.77;14.07;;;;;;;32.09;41.44;98609.50;4872175;29;20495;-67
2022/10/14 10:55:43;;;;;;;26.98;15.15;;;;;;;32.01;40.36;98607.72;4868513;29;20352;-67
2022/10/14 10:58:34;;;;;;;32.42;15.65;;;;;;;31.96;42.03;98607.97;4853602;29;20160;-67
2022/10/14 11:01:58;;;;;;;26.90;15.15;;;;;;;31.92;41.71;98605.09;4867360;29;20746;-66
2022/10/14 11:04:46;;;;;;;29.75;14.63;;;;;;;32.03;42.20;98599.06;4872199;29;20060;-66
2022/10/14 11:14:49;;;;;;;22.25;14.73;;;;;;;31.93;41.67;98597.56;4864167;29;20676;-69
2022/10/14 11:18:00;;;;;;;30.10;14.88;;;;;;;31.83;45.23;98600.91;4881982;29;20127;-67
2022/10/14 11:21:25;;;;;;;33.80;15.43;;;;;;;31.67;45.39;98603.69;4890663;29;20052;-68
2022/10/14 11:24:15;;;;;;;31.70;13.77;;;;;;;31.64;45.44;98601.63;4853185;29;20141;-68
2022/10/14 11:27:27;;;;;;;29.20;14.23;;;;;;;31.52;46.40;98596.97;4867769;29;20136;-66
2022/10/14 11:30:42;;;;;;;31.25;14.93;;;;;;;31.53;43.96;98595.81;4852193;29;20518;-68
2022/10/14 11:33:43;;;;;;;27.98;15.07;;;;;;;31.56;44.51;98595.09;4852937;29;20061;-67
2022/10/14 11:37:10;;;;;;;30.65;15.35;;;;;;;31.37;45.91;98607.63;4833943;29;20054;-68
2022/10/14 11:40:14;;;;;;;30.48;15.20;;;;;;;31.35;44.84;98596.09;4821966;29;20046;-68
2022/10/14 11:43:09;;;;;;;28.80;14.35;;;;;;;31.41;44.41;98605.78;4836966;29;20049;-67
2022/10/14 11:46:17;;;;;;;27.65;14.55;;;;;;;31.29;45.64;98600.31;4854711;29;20049;-68
2022/10/14 11:49:14;;;;;;;31.15;15.07;;;;;;;31.15;47.97;98594.38;4854487;29;20049;-69
2022/10/14 11:52:12;;;;;;;31.15;15.77;;;;;;;31.00;47.90;98602.28;4852515;29;20124;-69
2022/10/14 11:55:03;;;;;;;41.22;16.65;;;;;;;30.88;45.47;98591.22;4863696;29;20854;-69
2022/10/14 11:58:05;;;;;;;32.17;15.00;;;;;;;30.84;44.99;98595.88;4834110;29;20541;-72
2022/10/14 12:01:00;;;;;;;39.17;16.15;;;;;;;31.05;44.77;98603.19;4833323;29;20053;-71
2022/10/14 12:04:05;;;;;;;32.35;14.90;;;;;;;31.01;44.91;98592.00;4833948;29;20069;-69
2022/10/14 12:06:55;;;;;;;43.53;17.63;;;;;;;31.06;44.76;98599.28;4834001;29;20058;-68
2022/10/14 12:10:10;;;;;;;30.50;18.17;;;;;;;30.87;45.72;98595.16;4833867;29;20125;-69
2022/10/14 12:12:55;;;;;;;34.65;16.63;;;;;;;30.74;46.20;98588.03;4833995;29;20061;-69
2022/10/14 12:15:49;;;;;;;25.25;15.93;;;;;;;30.69;46.71;98596.59;4834139;29;20415;-68
2022/10/14 12:18:31;;;;;;;32.60;16.33;;;;;;;30.62;46.23;98592.47;4869469;29;20136;-68
2022/10/14 12:21:45;;;;;;;38.13;16.95;;;;;;;30.56;46.57;98593.88;4850213;29;20102;-69
2022/10/14 12:24:45;;;;;;;30.05;15.60;;;;;;;30.56;46.82;98595.84;4860030;29;20433;-69
2022/10/14 12:27:40;;;;;;;;;;;;;;;30.60;46.81;98589.22;4868830;29;20509;-68
2022/10/14 12:30:48;;;;;;;30.50;15.35;;;;;;;30.37;47.73;98596.44;4863211;29;19928;-68
2022/10/14 12:34:18;;;;;;;32.13;16.92;;;;;;;30.26;48.40;98601.63;4826178;29;20076;-69
2022/10/14 12:36:54;;;;;;;43.40;16.67;;;;;;;30.11;49.38;98599.56;4850518;29;20045;-69
2022/10/14 12:39:50;;;;;;;34.50;16.65;;;;;;;30.03;49.66;98602.09;4875226;29;20650;-69
2022/10/14 12:42:25;;;;;;;39.13;16.25;;;;;;;29.97;49.66;98605.44;4860926;29;20048;-69
2022/10/14 12:45:42;;;;;;;36.47;15.00;;;;;;;29.99;49.64;98608.66;4866213;29;20064;-67
2022/10/14 12:48:22;;;;;;;30.77;14.85;;;;;;;29.91;48.61;98610.41;4856656;29;20109;-69
2022/10/14 12:51:23;;;;;;;32.90;15.38;;;;;;;29.93;49.14;98613.63;4868137;29;20052;-70
2022/10/14 12:54:11;;;;;;;34.17;15.85;;;;;;;29.87;50.56;98620.53;4856865;29;20156;-68
2022/10/14 12:57:28;;;;;;;34.10;15.63;;;;;;;29.83;50.84;98616.84;4858898;29;20049;-70
2022/10/14 13:00:30;;;;;;;27.85;15.93;;;;;;;29.69;51.94;98628.19;4847794;29;20046;-70
2022/10/14 13:03:30;;;;;;;34.17;16.10;;;;;;;29.62;51.31;98622.44;4854109;29;20053;-71
2022/10/14 13:06:29;;;;;;;30.63;15.73;;;;;;;29.52;52.29;98634.72;4860398;29;20093;-69
2022/10/14 13:09:31;;;;;;;61.58;18.05;;;;;;;29.46;51.80;98641.63;4837338;29;20825;-70
2022/10/14 13:12:25;;;;;;;42.45;17.35;;;;;;;29.32;51.36;98641.94;4862208;29;20077;-69
2022/10/14 13:15:38;;;;;;;36.25;18.05;;;;;;;29.26;52.04;98638.59;4862556;29;20077;-71
2022/10/14 13:18:27;;;;;;;39.03;16.85;;;;;;;29.11;53.03;98643.91;4861031;29;20552;-68
2022/10/14 13:21:41;;;;;;;34.70;17.23;;;;;;;28.97;53.69;98642.25;4862595;29;20081;-71
2022/10/14 13:24:27;;;;;;;36.67;18.30;;;;;;;28.84;53.19;98654.38;4861345;29;20052;-70
2022/10/14 13:28:02;;;;;;;43.15;17.27;;;;;;;28.81;54.26;98652.28;4860267;29;20058;-69